Air Navigation Services of Czech Republic
Airport: LKPD Updated:  13.11.2018 20:01:07  UTC
 METAR LKPD 13.11. 20:00 ...
METAR LKPD 132000Z 27005KT CAVOK 09/07 Q1028 RMK BLACK=